Terminal Aerodrome Forecast
Issued by NWS

Home | Current Version | Previous Version | Text Only | Print | Product List | Glossary On
Versions: 1 2 3 4 5 6 7 8 9 10 11 12 13 14 15 16 17 18 19 20 21 22 23 24 25 26 27 28
053
FTUS41 KBUF 060547
TAFIAG
TAF
KIAG 060547Z 0606/0706 VRB04KT P6SM SCT040
     FM061200 12006KT P6SM SCT250
     FM061600 11012G18KT P6SM SCT060
     FM062000 11010KT P6SM OVC050
     FM062300 11008KT 6SM -RA OVC025
     FM070200 13007KT 6SM -RA OVC007=

USA.gov is the U.S. government's official web portal to all federal, state and local government web resources and services.